METAR Data
IDs: Format: Raw Decoded Include TAF

Data at: 1717 UTC 16 Oct 2021

KXBP 161655Z AUTO 32005KT 10SM CLR 18/06 A3044 RMK AO2 T01830063
KXBP 161635Z AUTO 30004KT 10SM CLR 17/07 A3045 RMK AO2 T01720069
KXBP 161615Z AUTO 31003KT 10SM CLR 16/07 A3045 RMK AO2 T01640072
KXBP 161555Z AUTO 33004KT 10SM CLR 16/07 A3045 RMK AO2 T01590067
KXBP 161535Z AUTO 33004KT 10SM CLR 15/07 A3045 RMK AO2 T01520067
KXBP 161515Z AUTO 32004KT 10SM CLR 15/07 A3045 RMK AO2 T01450066
KXBP 161455Z AUTO 33004KT 10SM CLR 14/07 A3044 RMK AO2 T01400069
KXBP 161435Z AUTO 00000KT 10SM CLR 13/08 A3043 RMK AO2 T01290076
KXBP 161415Z AUTO 28004KT 10SM CLR 12/08 A3043 RMK AO2 T01230079
KXBP 161355Z AUTO 28003KT 10SM CLR 11/08 A3042 RMK AO2 T01090080
KXBP 161335Z AUTO 25003KT 10SM CLR 09/07 A3041 RMK AO2 T00890070
KXBP 161315Z AUTO 00000KT 10SM CLR 08/06 A3039 RMK AO2 T00770062
KXBP 161255Z AUTO 00000KT 10SM CLR 07/05 A3039 RMK AO2 T00700053
KXBP 161235Z AUTO 22003KT 10SM CLR 07/05 A3038 RMK AO2 T00670052
KXBP 161215Z AUTO 23003KT 10SM CLR 07/06 A3038 RMK AO2 T00700055
KXBP 161155Z AUTO 00000KT 10SM CLR 07/06 A3037 RMK AO2 T00720058 10129 20060
KXBP 161135Z AUTO 23003KT 10SM CLR 07/07 A3036 RMK AO2 T00700065
KXBP 161115Z AUTO 00000KT 10SM CLR 06/06 A3036 RMK AO2 T00610061
KXBP 161055Z AUTO 00000KT 10SM CLR 06/06 A3035 RMK AO2 T00620062
KXBP 161035Z AUTO 00000KT 10SM CLR 07/06 A3035 RMK AO2 T00650064
KXBP 161015Z AUTO 00000KT 10SM CLR 07/06 A3035 RMK AO2 T00680063
KXBP 160955Z AUTO 00000KT 10SM CLR 07/06 A3035 RMK AO2 T00700064
KXBP 160935Z AUTO 00000KT 10SM CLR 07/06 A3035 RMK AO2 T00700064
KXBP 160915Z AUTO 00000KT 10SM CLR 08/06 A3035 RMK AO2 T00750062
KXBP 160855Z AUTO 00000KT 10SM CLR 08/06 A3034 RMK AO2 T00840063
KXBP 160835Z AUTO 00000KT 10SM CLR 08/07 A3035 RMK AO2 T00770067
KXBP 160815Z AUTO 00000KT 10SM CLR 08/07 A3035 RMK AO2 T00790065
KXBP 160755Z AUTO 00000KT 10SM CLR 09/06 A3035 RMK AO2 T00850063
KXBP 160735Z AUTO 00000KT 10SM CLR 11/06 A3034 RMK AO2 T01100057
KXBP 160715Z AUTO 00000KT 10SM CLR 12/05 A3034 RMK AO2 T01220051
KXBP 160655Z AUTO 35004KT 10SM CLR 12/06 A3034 RMK AO2 T01220058
KXBP 160635Z AUTO 01003KT 10SM CLR 13/06 A3034 RMK AO2 T01250056
KXBP 160615Z AUTO 35004KT 10SM CLR 13/06 A3033 RMK AO2 T01250060
KXBP 160555Z AUTO 36003KT 10SM CLR 13/06 A3033 RMK AO2 T01250063 10187 20091 402240091
KXBP 160535Z AUTO 01003KT 10SM CLR 12/06 A3032 RMK AO2 T01240063
KXBP 160515Z AUTO 36003KT 10SM CLR 12/06 A3031 RMK AO2 T01180057
KXBP 160455Z AUTO 00000KT 10SM CLR 09/08 A3031 RMK AO2 T00920077
KXBP 160435Z AUTO 00000KT 10SM CLR 10/07 A3030 RMK AO2 T00950070
KXBP 160415Z AUTO 00000KT 10SM CLR 11/06 A3030 RMK AO2 T01100064
KXBP 160355Z AUTO 00000KT 10SM CLR 11/07 A3029 RMK AO2 T01050069
KXBP 160335Z AUTO 00000KT 10SM CLR 11/07 A3028 RMK AO2 T01140067
KXBP 160315Z AUTO 00000KT 10SM CLR 13/05 A3028 RMK AO2 T01340051
KXBP 160255Z AUTO 00000KT 10SM CLR 14/05 A3027 RMK AO2 T01390053
KXBP 160235Z AUTO 35003KT 10SM CLR 15/05 A3027 RMK AO2 T01470050
KXBP 160215Z AUTO 00000KT 10SM CLR 15/05 A3026 RMK AO2 T01490046
KXBP 160155Z AUTO 35004KT 10SM CLR 16/04 A3025 RMK AO2 T01560044
KXBP 160135Z AUTO 36003KT 10SM CLR 16/05 A3024 RMK AO2 T01560050
KXBP 160115Z AUTO 35004KT 10SM CLR 16/05 A3023 RMK AO2 T01620050
KXBP 160055Z AUTO 36004KT 10SM CLR 17/05 A3022 RMK AO2 T01700050
KXBP 160035Z AUTO 36007KT 10SM CLR 18/05 A3022 RMK AO2 T01770050
KXBP 160015Z AUTO 36009G14KT 10SM CLR 18/05 A3020 RMK AO2 T01820052
KXBP 152355Z AUTO 35010G17KT 10SM CLR 19/06 A3019 RMK AO2 T01860055 10224 20186
KXBP 152335Z AUTO 36010G17KT 10SM CLR 19/06 A3018 RMK AO2 T01930062
KXBP 152315Z AUTO 35007G15KT 10SM CLR 20/07 A3017 RMK AO2 T02000067
KXBP 152255Z AUTO 35009G19KT 10SM CLR 21/06 A3017 RMK AO2 T02050061
KXBP 152235Z AUTO 36007G18KT 10SM CLR 21/06 A3016 RMK AO2 T02100063
KXBP 152215Z AUTO 36011G19KT 10SM CLR 21/06 A3015 RMK AO2 T02120060
KXBP 152155Z AUTO 36013G19KT 10SM CLR 22/07 A3015 RMK AO2 T02150065
KXBP 152135Z AUTO 35013G19KT 10SM CLR 22/07 A3014 RMK AO2 T02160066
KXBP 152115Z AUTO 34015G20KT 10SM CLR 22/07 A3014 RMK AO2 T02180073
KXBP 152055Z AUTO 36009G19KT 10SM CLR 22/08 A3013 RMK AO2 T02200076
KXBP 152035Z AUTO 36011G19KT 10SM CLR 22/08 A3013 RMK AO2 T02230083
KXBP 152015Z AUTO 36014G20KT 10SM CLR 22/09 A3012 RMK AO2 T02200085
KXBP 151955Z AUTO 34013G19KT 10SM CLR 22/09 A3012 RMK AO2 T02200092
KXBP 151935Z AUTO 36016G22KT 10SM CLR 22/09 A3011 RMK AO2 T02180092
KXBP 151915Z AUTO 36015G21KT 10SM CLR 21/10 A3011 RMK AO2 T02130098
KXBP 151855Z AUTO 34014G21KT 10SM CLR 21/10 A3011 RMK AO2 T02100100
KXBP 151835Z AUTO 34012G18KT 10SM CLR 21/11 A3012 RMK AO2 T02110106
KXBP 151815Z AUTO 32013G19KT 10SM CLR 21/11 A3012 RMK AO2 T02060106
KXBP 151755Z AUTO 34014G20KT 10SM CLR 20/11 A3011 RMK AO2 T02020110 10205 20150
KXBP 151735Z AUTO 33013G18KT 10SM SCT026 20/11 A3011 RMK AO2 T01960113
KXBP 151715Z AUTO 33011G18KT 10SM SCT024 19/12 A3011 RMK AO2 T01920118
KXBP 151655Z AUTO 33014G19KT 10SM SCT019 19/13 A3011 RMK AO2 T01860125
KXBP 151635Z AUTO 32011G19KT 10SM BKN019 BKN031 18/14 A3010 RMK AO2 T01780136
KXBP 151615Z AUTO 33012G18KT 10SM SCT007 BKN013 OVC020 16/14 A3009 RMK AO2 T01610135
KXBP 151555Z AUTO 32011G19KT 10SM OVC007 15/14 A3008 RMK AO2 T01510143
KXBP 151535Z AUTO 31011G18KT 10SM OVC007 15/15 A3007 RMK AO2 T01520150
KXBP 151515Z AUTO 32009G17KT 10SM OVC005 16/16 A3006 RMK AO2 T01550155
KXBP 151455Z AUTO 32009G18KT 7SM BKN005 OVC010 16/16 A3004 RMK AO2 T01600160
KXBP 151435Z AUTO 30007KT 1 3/4SM RA OVC003 18/18 A3002 RMK AO2 T01760176
KXBP 151415Z AUTO 29009KT 2 1/2SM BR OVC003 18/18 A3000 RMK AO2 T01760176
KXBP 151355Z AUTO 29009KT 4SM BR OVC003 18/18 A2998 RMK AO2 T01800180
KXBP 151335Z AUTO 29010KT 10SM OVC005 18/18 A2997 RMK AO2 T01810181
KXBP 151315Z AUTO 29008KT 3SM BR OVC005 18/18 A2995 RMK AO2 T01820182
KXBP 151255Z AUTO 30008KT 10SM BKN007 OVC011 19/19 A2993 RMK AO2 T01870187
KXBP 151235Z AUTO 30008KT 10SM SCT007 OVC011 20/20 A2992 RMK AO2 T02040204
KXBP 151215Z AUTO 26003KT 10SM OVC015 20/20 A2990 RMK AO2 T02040204
KXBP 151155Z AUTO 00000KT 10SM OVC017 21/21 A2990 RMK AO2 70001 T02050205 10213 20179
KXBP 151135Z AUTO 00000KT 10SM OVC019 20/20 A2989 RMK AO2 T02040204
KXBP 151115Z AUTO 00000KT 10SM SCT010 OVC019 21/21 A2988 RMK AO2 T02050205
KXBP 151055Z AUTO 00000KT 7SM SCT010 BKN021 19/19 A2988 RMK AO2 T01910191
KXBP 151035Z AUTO 00000KT 7SM CLR 19/19 A2987 RMK AO2 T01880188
KXBP 151015Z AUTO 00000KT 7SM CLR 19/19 A2986 RMK AO2 T01920192
KXBP 150955Z AUTO 00000KT 10SM CLR 20/20 A2985 RMK AO2 T01990198
KXBP 150935Z AUTO 00000KT 10SM CLR 21/20 A2985 RMK AO2 T02130204
KXBP 150915Z AUTO 20006KT 10SM CLR 21/21 A2984 RMK AO2 T02100210
KXBP 150855Z AUTO 19005KT 10SM CLR 21/21 A2984 RMK AO2 T02070207
KXBP 150835Z AUTO 20005KT 10SM CLR 21/21 A2984 RMK AO2 T02050205
KXBP 150815Z AUTO 00000KT 5SM BR CLR 18/18 A2985 RMK AO2 T01810181
KXBP 150755Z AUTO 01003KT 10SM CLR 18/18 A2985 RMK AO2 T01840184
KXBP 150735Z AUTO 00000KT 2 1/2SM BR CLR 18/18 A2985 RMK AO2 VIS 1 1/2V5 T01800180
KXBP 150715Z AUTO 00000KT 1/2SM FG VV005 18/18 A2984 RMK AO2 T01790179
KXBP 150655Z AUTO 00000KT 3/4SM BR VV005 19/19 A2984 RMK AO2 T01900190
KXBP 150635Z AUTO 00000KT 4SM BR CLR 19/19 A2983 RMK AO2 T01890189
KXBP 150615Z AUTO 00000KT 5SM BR CLR 19/19 A2984 RMK AO2 T01920192
KXBP 150555Z AUTO 00000KT 7SM CLR 19/19 A2984 RMK AO2 T01880188 10246 20188 402770182
KXBP 150535Z AUTO 00000KT 7SM CLR 19/19 A2985 RMK AO2 T01920192